createdAt,value
2022-08-16T00:00:20.417Z,76.70
2022-08-16T00:02:44.102Z,78.02
2022-08-16T00:05:11.978Z,77.31
2022-08-16T00:07:34.064Z,78.72
2022-08-16T00:09:59.915Z,78.32
2022-08-16T00:12:21.596Z,79.01
2022-08-16T00:14:45.410Z,78.57
2022-08-16T00:17:18.477Z,79.02
2022-08-16T00:19:41.537Z,78.04
2022-08-16T00:22:06.975Z,79.94
2022-08-16T00:24:35.396Z,80.23
2022-08-16T00:26:57.259Z,78.05
2022-08-16T00:29:20.916Z,81.06
2022-08-16T00:31:58.882Z,80.35
2022-08-16T00:34:22.971Z,80.70
2022-08-16T00:37:04.518Z,80.86
2022-08-16T00:39:26.336Z,79.80
2022-08-16T00:41:50.041Z,80.60
2022-08-16T00:44:13.808Z,80.80
2022-08-16T00:46:52.631Z,79.93
2022-08-16T00:49:19.714Z,80.31
2022-08-16T00:51:42.115Z,78.13
2022-08-16T00:54:04.618Z,78.09
2022-08-16T00:56:58.379Z,79.05
2022-08-16T00:59:20.887Z,78.79
2022-08-16T01:01:45.702Z,80.21
2022-08-16T01:04:29.585Z,80.71
2022-08-16T01:07:02.365Z,78.85
2022-08-16T01:09:24.490Z,80.04
2022-08-16T01:11:56.120Z,80.92
2022-08-16T01:14:25.093Z,80.79
2022-08-16T01:16:53.676Z,80.11
2022-08-16T01:19:30.073Z,80.49
2022-08-16T01:22:50.204Z,79.91
2022-08-16T01:24:53.943Z,79.12
2022-08-16T01:27:34.606Z,77.31
2022-08-16T01:30:06.073Z,77.39
2022-08-16T01:32:42.605Z,78.03
2022-08-16T01:35:17.064Z,78.27
2022-08-16T01:37:42.701Z,78.19
2022-08-16T01:40:06.963Z,77.32
2022-08-16T01:42:29.103Z,76.23
2022-08-16T01:44:52.309Z,76.80
2022-08-16T01:47:13.869Z,77.31
2022-08-16T01:49:45.544Z,78.83
2022-08-16T01:52:28.256Z,78.70
2022-08-16T01:54:51.575Z,78.17
2022-08-16T01:57:15.078Z,78.12
2022-08-16T01:59:44.201Z,79.05
2022-08-16T02:02:27.541Z,81.47
2022-08-16T02:04:53.172Z,79.63
2022-08-16T02:07:18.522Z,78.90
2022-08-16T02:09:41.073Z,79.06
2022-08-16T02:12:50.455Z,79.08
2022-08-16T02:14:48.145Z,78.46
2022-08-16T02:17:11.894Z,79.23
2022-08-16T02:19:59.381Z,80.09
2022-08-16T02:22:34.412Z,80.40
2022-08-16T02:24:56.666Z,80.25
2022-08-16T02:27:18.315Z,81.13
2022-08-16T02:29:41.998Z,82.33
2022-08-16T02:33:01.043Z,81.02
2022-08-16T02:34:46.322Z,78.50
2022-08-16T02:37:11.795Z,78.48
2022-08-16T02:39:33.278Z,79.06
2022-08-16T02:41:56.074Z,80.76
2022-08-16T02:44:18.069Z,80.99
2022-08-16T02:46:50.678Z,81.87
2022-08-16T02:49:15.926Z,81.14
2022-08-16T02:51:39.559Z,82.41
2022-08-16T02:54:02.688Z,81.11
2022-08-16T02:56:24.204Z,82.17
2022-08-16T02:58:53.681Z,82.01
2022-08-16T03:01:33.790Z,82.33
2022-08-16T03:04:28.696Z,83.56
2022-08-16T03:06:43.635Z,84.23
2022-08-16T03:09:05.181Z,84.09
2022-08-16T03:11:26.740Z,85.26
2022-08-16T03:13:57.479Z,86.80
2022-08-16T03:16:38.491Z,85.10
2022-08-16T03:19:04.215Z,84.77
2022-08-16T03:21:28.827Z,84.09
2022-08-16T03:23:59.795Z,84.24
2022-08-16T03:26:22.764Z,84.08
2022-08-16T03:28:46.147Z,85.03
2022-08-16T03:31:08.738Z,83.20
2022-08-16T03:33:30.240Z,83.01
2022-08-16T03:35:59.229Z,83.69
2022-08-16T03:38:40.692Z,84.14
2022-08-16T03:41:04.001Z,84.28
2022-08-16T03:43:51.527Z,85.13
2022-08-16T03:46:13.992Z,87.64
2022-08-16T03:48:55.708Z,88.23
2022-08-16T03:51:18.101Z,88.62
2022-08-16T03:54:00.914Z,88.66
2022-08-16T03:56:23.291Z,89.72
2022-08-16T03:58:48.441Z,89.99
2022-08-16T04:01:12.699Z,89.44
2022-08-16T04:03:35.275Z,89.69
2022-08-16T04:05:57.976Z,89.16
2022-08-16T04:08:23.417Z,88.62
2022-08-16T04:10:45.898Z,88.22
2022-08-16T04:13:20.600Z,87.97
2022-08-16T04:15:55.374Z,86.84
2022-08-16T04:18:17.463Z,86.31
2022-08-16T04:20:39.315Z,86.35
2022-08-16T04:23:02.057Z,85.42
2022-08-16T04:25:24.249Z,85.14
2022-08-16T04:27:54.167Z,85.60
2022-08-16T04:30:32.188Z,85.21
2022-08-16T04:32:57.164Z,84.91
2022-08-16T04:35:23.262Z,84.14
2022-08-16T04:37:46.537Z,84.11
2022-08-16T04:40:10.200Z,84.85
2022-08-16T04:42:43.180Z,83.78
2022-08-16T04:45:07.110Z,83.36
2022-08-16T04:47:35.670Z,84.51
2022-08-16T04:49:57.967Z,85.20
2022-08-16T04:52:33.936Z,85.45
2022-08-16T04:54:57.149Z,85.89
2022-08-16T04:57:18.623Z,86.06
2022-08-16T04:59:40.264Z,86.18
2022-08-16T05:02:03.611Z,86.33
2022-08-16T05:04:44.970Z,85.95
2022-08-16T05:07:06.830Z,85.10
2022-08-16T05:09:28.469Z,85.28
2022-08-16T05:11:51.861Z,85.25
2022-08-16T05:14:20.056Z,85.01
2022-08-16T05:16:54.939Z,84.53
2022-08-16T05:19:17.246Z,84.72
2022-08-16T05:21:39.599Z,84.12
2022-08-16T05:24:01.976Z,84.36
2022-08-16T05:26:29.748Z,84.17
2022-08-16T05:28:55.282Z,83.70
2022-08-16T05:31:17.875Z,83.77
2022-08-16T05:33:42.287Z,83.40
2022-08-16T05:36:04.920Z,83.37
2022-08-16T05:38:39.252Z,83.57
2022-08-16T05:41:02.434Z,83.81
2022-08-16T05:43:24.253Z,83.94
2022-08-16T05:45:45.737Z,83.17
2022-08-16T05:48:12.505Z,83.40
2022-08-16T05:50:34.734Z,83.36
2022-08-16T05:52:56.285Z,83.33
2022-08-16T05:55:19.442Z,83.19
2022-08-16T05:57:41.855Z,82.99
2022-08-16T06:00:09.313Z,82.72
2022-08-16T06:02:33.487Z,82.66
2022-08-16T06:04:55.151Z,82.49
2022-08-16T06:07:24.723Z,82.43
2022-08-16T06:09:47.579Z,82.41
2022-08-16T06:12:09.478Z,82.52
2022-08-16T06:14:32.470Z,82.43
2022-08-16T06:16:53.948Z,81.96
2022-08-16T06:19:16.718Z,82.06
2022-08-16T06:21:39.094Z,81.69
2022-08-16T06:24:00.991Z,81.58
2022-08-16T06:26:23.276Z,81.38
2022-08-16T06:28:45.401Z,81.24
2022-08-16T06:31:12.214Z,81.04
2022-08-16T06:33:42.033Z,80.53
2022-08-16T06:36:04.384Z,80.48
2022-08-16T06:38:34.026Z,79.67
2022-08-16T06:40:56.157Z,78.98
2022-08-16T06:43:19.824Z,78.74
2022-08-16T06:45:43.347Z,77.07
2022-08-16T06:48:05.608Z,77.99
2022-08-16T06:50:29.305Z,76.93
2022-08-16T06:52:58.516Z,77.52
2022-08-16T06:55:22.286Z,76.39
2022-08-16T06:57:45.902Z,75.94
2022-08-16T07:00:24.787Z,75.05
2022-08-16T07:02:51.833Z,74.69
2022-08-16T07:05:16.275Z,74.06
2022-08-16T07:07:39.884Z,74.21
2022-08-16T07:10:08.651Z,73.59
2022-08-16T07:12:36.895Z,72.98
2022-08-16T07:15:18.657Z,72.54
2022-08-16T07:17:40.464Z,71.25
2022-08-16T07:20:34.945Z,71.58
2022-08-16T07:22:52.583Z,71.65
2022-08-16T07:25:20.075Z,70.70
2022-08-16T07:27:44.462Z,70.57
2022-08-16T07:30:45.858Z,70.08
2022-08-16T07:32:51.527Z,68.62
2022-08-16T07:35:13.491Z,68.82
2022-08-16T07:37:35.920Z,67.78
2022-08-16T07:40:02.339Z,67.96
2022-08-16T07:42:35.384Z,67.97
2022-08-16T07:44:57.975Z,66.57
2022-08-16T07:47:24.431Z,66.22
2022-08-16T07:49:53.119Z,65.83
2022-08-16T07:52:20.608Z,64.74
2022-08-16T07:54:45.822Z,62.94
2022-08-16T07:57:07.545Z,62.90
2022-08-16T07:59:45.663Z,62.98
2022-08-16T08:02:11.950Z,61.56
2022-08-16T08:04:33.912Z,62.09
2022-08-16T08:06:56.007Z,61.10
2022-08-16T08:09:18.001Z,60.51
2022-08-16T08:11:41.487Z,60.76
2022-08-16T08:14:29.709Z,58.90
2022-08-16T08:16:52.924Z,59.35
2022-08-16T08:19:14.635Z,59.54
2022-08-16T08:22:00.944Z,59.42
2022-08-16T08:24:18.478Z,59.75
2022-08-16T08:26:42.993Z,58.46
2022-08-16T08:29:05.147Z,58.37
2022-08-16T08:31:30.537Z,57.15
2022-08-16T08:33:56.611Z,57.05
2022-08-16T08:36:33.467Z,56.62
2022-08-16T08:38:55.660Z,55.37
2022-08-16T08:41:19.761Z,54.28
2022-08-16T08:43:50.516Z,53.99
2022-08-16T08:46:17.971Z,53.01
2022-08-16T08:48:40.221Z,52.60
2022-08-16T08:51:09.247Z,51.70
2022-08-16T08:53:33.337Z,50.54
2022-08-16T08:55:58.852Z,49.68
2022-08-16T08:58:20.972Z,49.22
2022-08-16T09:00:50.394Z,48.21
2022-08-16T09:03:14.811Z,47.49
2022-08-16T09:05:37.524Z,47.44
2022-08-16T09:08:01.532Z,46.43
2022-08-16T09:10:29.534Z,45.92
2022-08-16T09:12:52.024Z,45.88
2022-08-16T09:15:16.071Z,45.34
2022-08-16T09:17:53.503Z,45.76
2022-08-16T09:20:16.809Z,44.76
2022-08-16T09:22:38.399Z,44.24
2022-08-16T09:25:10.168Z,45.02
2022-08-16T09:27:56.909Z,44.77
2022-08-16T09:30:33.193Z,44.66
2022-08-16T09:32:56.758Z,44.88
2022-08-16T09:35:18.215Z,43.91
2022-08-16T09:37:39.846Z,43.67
2022-08-16T09:40:01.860Z,44.27
2022-08-16T09:42:23.357Z,43.24
2022-08-16T09:45:09.301Z,43.08
2022-08-16T09:47:28.156Z,42.36
2022-08-16T09:50:12.154Z,41.53
2022-08-16T09:52:39.606Z,40.89
2022-08-16T09:55:12.610Z,39.59
2022-08-16T09:57:34.790Z,40.50
2022-08-16T09:59:57.200Z,40.61
2022-08-16T10:02:27.367Z,40.40
2022-08-16T10:04:54.539Z,40.23
2022-08-16T10:07:18.205Z,39.94
2022-08-16T10:09:44.860Z,39.64
2022-08-16T10:12:34.469Z,38.90
2022-08-16T10:15:04.745Z,39.00
2022-08-16T10:17:26.756Z,39.37
2022-08-16T10:19:50.346Z,39.38
2022-08-16T10:22:12.694Z,38.95
2022-08-16T10:24:34.516Z,39.89
2022-08-16T10:27:03.785Z,39.92
2022-08-16T10:30:01.160Z,40.36
2022-08-16T10:32:30.500Z,38.39
2022-08-16T10:34:54.229Z,38.83
2022-08-16T10:37:16.647Z,37.49
2022-08-16T10:39:55.973Z,38.40
2022-08-16T10:42:20.532Z,37.97
2022-08-16T10:44:42.730Z,37.20
2022-08-16T10:47:15.812Z,36.92
2022-08-16T10:49:39.496Z,36.71
2022-08-16T10:52:18.009Z,36.50
2022-08-16T10:57:24.601Z,37.21
2022-08-16T10:59:56.126Z,37.16
2022-08-16T11:02:57.739Z,36.44
2022-08-16T11:05:06.411Z,36.21
2022-08-16T11:07:45.538Z,36.50
2022-08-16T11:10:20.409Z,36.15
2022-08-16T11:12:42.498Z,35.17
2022-08-16T11:15:17.225Z,34.63
2022-08-16T11:17:45.026Z,34.75
2022-08-16T11:20:41.969Z,35.22
2022-08-16T11:23:04.372Z,35.37
2022-08-16T11:28:11.215Z,36.22
2022-08-16T11:30:38.633Z,36.01
2022-08-16T11:33:04.003Z,35.69
2022-08-16T11:35:43.891Z,35.40
2022-08-16T11:38:46.264Z,34.95
2022-08-16T11:40:58.668Z,35.10
2022-08-16T11:43:24.937Z,35.66
2022-08-16T11:45:53.881Z,35.85
2022-08-16T11:48:16.793Z,37.21
2022-08-16T11:50:38.243Z,37.06
2022-08-16T11:53:04.187Z,37.03
2022-08-16T11:55:26.200Z,37.08
2022-08-16T11:57:51.550Z,37.72
2022-08-16T12:00:33.540Z,37.68
2022-08-16T12:03:00.791Z,37.69
2022-08-16T12:05:24.443Z,38.62
2022-08-16T12:07:46.501Z,37.94
2022-08-16T12:10:12.237Z,37.80
2022-08-16T12:12:34.354Z,38.42
2022-08-16T12:14:59.456Z,38.07
2022-08-16T12:17:22.969Z,38.02
2022-08-16T12:19:47.223Z,38.45
2022-08-16T12:22:19.764Z,38.26
2022-08-16T12:24:42.112Z,38.06
2022-08-16T12:27:05.334Z,37.44
2022-08-16T12:29:30.509Z,36.03
2022-08-16T12:32:00.653Z,34.96
2022-08-16T12:34:34.574Z,33.91
2022-08-16T12:36:56.575Z,33.18
2022-08-16T12:39:20.397Z,33.82
2022-08-16T12:41:46.284Z,33.77
2022-08-16T12:44:08.005Z,33.58
2022-08-16T12:46:33.133Z,33.35
2022-08-16T12:49:00.554Z,32.27
2022-08-16T12:51:32.959Z,31.81
2022-08-16T12:54:10.680Z,30.88
2022-08-16T12:56:35.287Z,31.15
2022-08-16T12:58:57.693Z,30.06
2022-08-16T13:01:24.660Z,30.18
2022-08-16T13:03:46.450Z,30.59
2022-08-16T13:06:08.720Z,30.45
2022-08-16T13:08:30.814Z,30.67
2022-08-16T13:10:55.225Z,30.31
2022-08-16T13:13:26.108Z,30.20
2022-08-16T13:15:55.676Z,28.71
2022-08-16T13:18:27.085Z,28.56
2022-08-16T13:20:58.817Z,27.31
2022-08-16T13:23:20.430Z,26.55
2022-08-16T13:25:45.290Z,26.50
2022-08-16T13:28:15.136Z,26.18
2022-08-16T13:31:01.106Z,24.98
2022-08-16T13:33:30.478Z,24.40
2022-08-16T13:35:55.643Z,23.94
2022-08-16T13:38:21.654Z,24.89
2022-08-16T13:40:46.764Z,24.81
2022-08-16T13:43:11.342Z,24.65
2022-08-16T13:45:36.448Z,23.59
2022-08-16T13:47:58.381Z,23.57
2022-08-16T13:50:31.099Z,24.88
2022-08-16T13:53:07.730Z,25.79
2022-08-16T13:55:29.758Z,26.84
2022-08-16T13:57:53.647Z,27.47
2022-08-16T14:00:34.290Z,28.34
2022-08-16T14:02:59.112Z,28.96
2022-08-16T14:05:22.091Z,28.88
2022-08-16T14:07:43.642Z,30.04
2022-08-16T14:10:13.525Z,30.22
2022-08-16T14:12:37.853Z,30.64
2022-08-16T14:15:00.675Z,31.31
2022-08-16T14:17:26.244Z,31.80
2022-08-16T14:19:49.282Z,32.49
2022-08-16T14:22:30.558Z,31.08
2022-08-16T14:24:54.894Z,30.31
2022-08-16T14:27:21.867Z,29.77
2022-08-16T14:29:43.558Z,28.68
2022-08-16T14:32:06.932Z,28.90
2022-08-16T14:34:29.814Z,28.68
2022-08-16T14:36:52.194Z,27.96
2022-08-16T14:39:14.555Z,27.11
2022-08-16T14:41:36.030Z,27.05
2022-08-16T14:44:00.956Z,26.43
2022-08-16T14:46:22.589Z,25.80
2022-08-16T14:48:44.079Z,25.97
2022-08-16T14:51:05.748Z,26.12
2022-08-16T14:53:28.966Z,25.39
2022-08-16T14:55:54.826Z,24.98
2022-08-16T14:58:18.728Z,24.61
2022-08-16T15:00:41.399Z,24.78
2022-08-16T15:03:06.817Z,25.16
2022-08-16T15:07:57.823Z,24.70
2022-08-16T15:10:24.249Z,23.64
2022-08-16T15:12:47.344Z,23.54
2022-08-16T15:15:16.276Z,23.28
2022-08-16T15:17:39.525Z,22.86
2022-08-16T15:20:01.903Z,21.51
2022-08-16T15:22:32.660Z,22.57
2022-08-16T15:24:58.799Z,22.16
2022-08-16T15:27:20.284Z,21.42
2022-08-16T15:29:42.346Z,21.77
2022-08-16T15:32:04.148Z,22.48
2022-08-16T15:34:30.353Z,22.88
2022-08-16T15:36:54.447Z,22.49
2022-08-16T15:39:30.334Z,22.68
2022-08-16T15:42:01.626Z,22.22
2022-08-16T15:44:25.390Z,22.34
2022-08-16T15:46:57.112Z,20.93
2022-08-16T15:49:20.360Z,21.28
2022-08-16T15:51:44.818Z,21.42
2022-08-16T15:54:29.154Z,22.11
2022-08-16T15:56:51.474Z,21.99
2022-08-16T15:59:14.123Z,22.48
2022-08-16T16:01:36.207Z,22.25
2022-08-16T16:03:58.044Z,22.28
2022-08-16T16:06:20.357Z,23.06
2022-08-16T16:08:49.961Z,22.91
2022-08-16T16:11:12.298Z,22.04
2022-08-16T16:13:34.193Z,22.34
2022-08-16T16:16:00.610Z,22.04
2022-08-16T16:18:24.802Z,22.16
2022-08-16T16:20:54.087Z,22.92
2022-08-16T16:23:19.288Z,23.49
2022-08-16T16:25:45.669Z,23.34
2022-08-16T16:28:12.709Z,23.17
2022-08-16T16:30:54.820Z,22.73
2022-08-16T16:33:22.943Z,23.07
2022-08-16T16:35:46.738Z,22.68
2022-08-16T16:38:08.885Z,22.96
2022-08-16T16:40:33.302Z,23.03
2022-08-16T16:42:56.198Z,23.09
2022-08-16T16:45:19.614Z,23.86
2022-08-16T16:47:48.293Z,23.95
2022-08-16T16:50:12.351Z,24.36
2022-08-16T16:52:44.329Z,24.60
2022-08-16T16:55:08.874Z,24.06
2022-08-16T16:57:48.894Z,24.57
2022-08-16T17:00:29.807Z,24.86
2022-08-16T17:02:56.527Z,25.11
2022-08-16T17:05:18.404Z,24.76
2022-08-16T17:07:40.506Z,24.88
2022-08-16T17:10:02.108Z,25.77
2022-08-16T17:12:25.116Z,25.41
2022-08-16T17:15:07.408Z,26.29
2022-08-16T17:17:30.077Z,26.54
2022-08-16T17:19:59.211Z,26.82
2022-08-16T17:22:22.409Z,26.57
2022-08-16T17:24:50.554Z,26.76
2022-08-16T17:27:32.103Z,26.49
2022-08-16T17:29:54.759Z,26.66
2022-08-16T17:32:44.464Z,27.18
2022-08-16T17:35:00.623Z,27.11
2022-08-16T17:37:22.319Z,27.42
2022-08-16T17:40:06.091Z,28.28
2022-08-16T17:42:33.704Z,29.36
2022-08-16T17:44:55.198Z,29.46
2022-08-16T17:47:16.659Z,29.65
2022-08-16T17:49:38.548Z,29.89
2022-08-16T17:52:00.109Z,30.25
2022-08-16T17:54:30.730Z,30.75
2022-08-16T17:56:53.934Z,31.70
2022-08-16T17:59:15.896Z,32.23
2022-08-16T18:01:37.463Z,33.18
2022-08-16T18:04:09.213Z,33.00
2022-08-16T18:06:31.402Z,33.29
2022-08-16T18:09:01.619Z,33.74
2022-08-16T18:11:26.095Z,34.60
2022-08-16T18:13:49.291Z,35.27
2022-08-16T18:16:14.090Z,35.57
2022-08-16T18:18:35.761Z,36.14
2022-08-16T18:21:15.828Z,37.19
2022-08-16T18:23:38.617Z,37.85
2022-08-16T18:26:01.768Z,38.08
2022-08-16T18:28:25.147Z,38.87
2022-08-16T18:30:51.424Z,38.99
2022-08-16T18:33:13.939Z,39.96
2022-08-16T18:35:35.729Z,39.59
2022-08-16T18:37:57.434Z,39.73
2022-08-16T18:40:19.045Z,40.19
2022-08-16T18:42:51.401Z,40.52
2022-08-16T18:45:13.106Z,40.92
2022-08-16T18:47:34.758Z,41.09
2022-08-16T18:49:56.317Z,42.16
2022-08-16T18:52:24.906Z,41.96
2022-08-16T18:54:58.846Z,42.08
2022-08-16T18:57:24.627Z,41.56
2022-08-16T18:59:46.173Z,43.14
2022-08-16T19:02:07.640Z,43.29
2022-08-16T19:04:57.682Z,43.30
2022-08-16T19:07:20.101Z,44.29
2022-08-16T19:09:41.621Z,44.17
2022-08-16T19:12:04.881Z,44.47
2022-08-16T19:14:30.030Z,44.04
2022-08-16T19:16:51.581Z,44.57
2022-08-16T19:19:13.113Z,44.68
2022-08-16T19:21:34.607Z,46.14
2022-08-16T19:23:56.481Z,46.32
2022-08-16T19:26:24.566Z,46.35
2022-08-16T19:28:58.492Z,46.99
2022-08-16T19:31:26.048Z,46.23
2022-08-16T19:33:54.487Z,46.67
2022-08-16T19:36:31.753Z,46.60
2022-08-16T19:38:55.500Z,47.91
2022-08-16T19:41:17.437Z,48.28
2022-08-16T19:43:38.984Z,48.51
2022-08-16T19:46:00.485Z,49.28
2022-08-16T19:48:22.078Z,48.55
2022-08-16T19:50:43.518Z,49.35
2022-08-16T19:53:18.958Z,49.56
2022-08-16T19:55:42.240Z,49.11
2022-08-16T19:58:05.504Z,49.22
2022-08-16T20:00:35.267Z,49.96
2022-08-16T20:02:57.393Z,50.33
2022-08-16T20:05:24.465Z,51.65
2022-08-16T20:07:46.918Z,51.25
2022-08-16T20:10:10.399Z,51.46
2022-08-16T20:12:31.859Z,51.66
2022-08-16T20:14:53.321Z,51.37
2022-08-16T20:17:15.072Z,51.94
2022-08-16T20:19:40.474Z,52.09
2022-08-16T20:22:05.695Z,52.56
2022-08-16T20:24:34.811Z,53.09
2022-08-16T20:26:57.567Z,54.25
2022-08-16T20:29:19.256Z,54.50
2022-08-16T20:31:40.747Z,54.50
2022-08-16T20:34:02.686Z,54.83
2022-08-16T20:36:24.523Z,54.48
2022-08-16T20:38:47.613Z,54.68
2022-08-16T20:41:09.487Z,55.94
2022-08-16T20:43:31.000Z,55.31
2022-08-16T20:45:52.555Z,54.92
2022-08-16T20:48:14.140Z,54.82
2022-08-16T20:50:35.838Z,55.83
2022-08-16T20:52:57.721Z,55.70
2022-08-16T20:55:20.439Z,56.33
2022-08-16T20:57:41.894Z,56.80
2022-08-16T21:00:06.241Z,56.89
2022-08-16T21:02:27.785Z,57.77
2022-08-16T21:04:49.361Z,58.35
2022-08-16T21:07:12.399Z,57.85
2022-08-16T21:09:35.738Z,57.99
2022-08-16T21:12:00.780Z,59.28
2022-08-16T21:14:23.597Z,58.73
2022-08-16T21:16:45.751Z,58.76
2022-08-16T21:19:07.483Z,58.26
2022-08-16T21:21:32.006Z,58.80
2022-08-16T21:23:55.566Z,59.39
2022-08-16T21:26:16.998Z,59.68
2022-08-16T21:28:43.272Z,58.85
2022-08-16T21:31:05.603Z,58.73
2022-08-16T21:33:27.070Z,59.57
2022-08-16T21:35:49.250Z,58.97
2022-08-16T21:38:29.304Z,59.35
2022-08-16T21:40:52.077Z,59.06
2022-08-16T21:43:23.361Z,59.57
2022-08-16T21:45:46.306Z,61.41
2022-08-16T21:48:08.172Z,59.89
2022-08-16T21:50:29.812Z,60.08
2022-08-16T21:53:11.914Z,59.69
2022-08-16T21:55:34.986Z,59.52
2022-08-16T21:57:56.700Z,59.30
2022-08-16T22:00:19.247Z,59.38
2022-08-16T22:02:41.674Z,58.78
2022-08-16T22:05:05.307Z,59.72
2022-08-16T22:07:26.831Z,59.88
2022-08-16T22:09:50.307Z,60.15
2022-08-16T22:12:24.046Z,61.74
2022-08-16T22:14:45.976Z,59.99
2022-08-16T22:17:07.415Z,61.29
2022-08-16T22:19:28.903Z,60.44
2022-08-16T22:21:50.433Z,61.14
2022-08-16T22:24:11.965Z,62.13
2022-08-16T22:26:38.470Z,63.15
2022-08-16T22:29:06.934Z,62.89
2022-08-16T22:31:28.797Z,63.19
2022-08-16T22:33:50.406Z,62.79
2022-08-16T22:36:12.073Z,63.14
2022-08-16T22:38:56.285Z,63.35
2022-08-16T22:41:16.212Z,64.31
2022-08-16T22:43:40.424Z,64.98
2022-08-16T22:46:02.033Z,64.73
2022-08-16T22:48:23.608Z,63.84
2022-08-16T22:50:45.302Z,64.03
2022-08-16T22:53:07.281Z,64.06
2022-08-16T22:55:30.475Z,64.83
2022-08-16T22:57:52.819Z,64.91
2022-08-16T23:00:17.179Z,64.70
2022-08-16T23:03:19.147Z,65.25
2022-08-16T23:05:50.509Z,66.24
2022-08-16T23:08:15.569Z,66.64
2022-08-16T23:10:55.502Z,64.92
2022-08-16T23:13:18.429Z,64.94
2022-08-16T23:15:45.702Z,65.34
2022-08-16T23:18:13.660Z,66.79
2022-08-16T23:20:35.113Z,67.57
2022-08-16T23:23:20.811Z,66.95
2022-08-16T23:25:44.925Z,68.52
2022-08-16T23:28:07.275Z,67.44
2022-08-16T23:30:30.923Z,67.23
2022-08-16T23:32:59.993Z,68.41
2022-08-16T23:35:24.491Z,68.00
2022-08-16T23:37:46.467Z,67.14
2022-08-16T23:40:13.385Z,66.90
2022-08-16T23:42:53.395Z,66.41
2022-08-16T23:45:17.866Z,68.07
2022-08-16T23:47:39.311Z,69.16
2022-08-16T23:50:03.857Z,69.36
2022-08-16T23:52:39.310Z,68.87
2022-08-16T23:55:08.403Z,68.68
2022-08-16T23:57:30.898Z,69.01
2022-08-16T23:59:53.544Z,68.75
